Time;durP1;ratioP1;P1;durP2;ratioP2;P2;SDS_P1;SDS_P2;PMS_P1;PMS_P2;Temp;Humidity;BMP_temperature;BMP_pressure;BME280_temperature;BME280_humidity;BME280_pressure;Samples;Min_cycle;Max_cycle;Signal;HPM_P1;HPM_P2
2022/01/25 00:09:08;;;;;;;55.00;29.07;;;;;;;10.56;52.45;101566.03;4930114;29;20491;-77
2022/01/25 00:25:56;;;;;;;54.40;28.75;;;;;;;10.42;52.70;101559.97;4941591;29;20122;-77
2022/01/25 00:33:34;;;;;;;42.10;23.67;;;;;;;10.22;52.26;101524.16;4919061;29;20059;-80
2022/01/25 00:36:06;;;;;;;64.03;33.03;;;;;;;10.30;52.43;101522.94;4918553;29;20087;-79
2022/01/25 00:38:33;;;;;;;56.20;27.10;;;;;;;10.42;52.10;101543.22;4936500;29;20131;-78
2022/01/25 00:41:00;;;;;;;41.27;24.00;;;;;;;10.26;52.19;101522.59;4934601;29;20055;-79
2022/01/25 00:43:27;;;;;;;50.27;27.30;;;;;;;10.48;52.02;101553.38;4933399;29;20127;-78
2022/01/25 00:45:58;;;;;;;55.17;27.40;;;;;;;10.25;51.73;101511.63;4937351;29;20056;-77
2022/01/25 00:49:02;;;;;;;50.60;27.27;;;;;;;10.53;51.93;101560.97;4920639;29;20052;-76
2022/01/25 00:56:45;;;;;;;39.80;22.07;;;;;;;10.15;52.17;101515.97;4926757;29;20079;-74
2022/01/25 00:59:18;;;;;;;44.70;21.37;;;;;;;10.45;51.98;101556.66;4923885;29;20135;-74
2022/01/25 01:01:47;;;;;;;37.17;18.60;;;;;;;10.43;51.99;101553.31;4936690;29;20538;-74
2022/01/25 01:04:17;;;;;;;31.33;17.50;;;;;;;10.41;51.95;101559.13;4967328;28;20055;-76
2022/01/25 01:06:45;;;;;;;36.28;20.45;;;;;;;10.48;51.64;101542.19;4927396;29;20471;-72
2022/01/25 01:09:14;;;;;;;38.77;19.23;;;;;;;10.55;51.46;101548.44;4921086;29;20055;-72
2022/01/25 01:11:51;;;;;;;44.13;21.80;;;;;;;10.49;51.24;101520.69;4919591;29;20533;-71
2022/01/25 01:36:58;;;;;;;43.50;24.03;;;;;;;9.52;53.62;101531.03;4919435;29;20083;-74
2022/01/25 01:43:53;;;;;;;37.53;21.00;;;;;;;9.38;54.42;101550.00;4920464;29;20063;-74
2022/01/25 01:46:33;;;;;;;38.10;22.67;;;;;;;9.37;54.53;101551.09;4928006;29;20091;-74
2022/01/25 01:49:02;;;;;;;38.25;22.10;;;;;;;9.33;54.61;101557.41;4932632;29;20487;-74
2022/01/25 01:51:34;;;;;;;31.87;20.70;;;;;;;9.33;54.62;101561.03;4928344;29;20585;-71
2022/01/25 01:54:12;;;;;;;40.60;21.30;;;;;;;9.30;54.67;101555.09;4918501;29;20088;-74
2022/01/25 01:56:40;;;;;;;39.83;21.37;;;;;;;9.51;53.91;101562.81;4931381;29;20082;-74
2022/01/25 01:59:15;;;;;;;43.73;22.00;;;;;;;9.57;53.65;101553.44;4931546;29;20098;-75
2022/01/25 02:01:46;;;;;;;36.23;19.83;;;;;;;9.65;53.36;101566.97;4930807;29;20138;-74
2022/01/25 02:04:15;;;;;;;37.03;21.58;;;;;;;9.44;53.47;101525.88;4932496;29;20079;-75
2022/01/25 02:06:43;;;;;;;30.92;17.17;;;;;;;9.32;53.35;101522.28;4931645;29;20060;-75
2022/01/25 02:09:11;;;;;;;36.67;19.37;;;;;;;9.52;53.58;101542.19;4926670;29;20135;-74
2022/01/25 02:11:39;;;;;;;39.33;21.13;;;;;;;9.72;53.38;101555.66;4933006;29;20154;-74
2022/01/25 02:14:09;;;;;;;31.73;17.77;;;;;;;9.53;53.15;101529.09;4934377;29;20139;-83
2022/01/25 02:16:58;;;;;;;37.75;19.60;;;;;;;9.60;52.89;101510.25;4959157;28;20122;-83
2022/01/25 02:22:32;;;;;;;32.83;18.47;;;;;;;9.86;52.89;101556.19;4931300;29;20051;-82
2022/01/25 02:25:00;;;;;;;29.23;17.57;;;;;;;9.39;53.04;101506.22;4928114;29;20123;-82
2022/01/25 02:27:28;;;;;;;30.87;18.87;;;;;;;9.84;52.75;101556.44;4931173;29;20138;-70
2022/01/25 02:29:55;;;;;;;35.67;19.17;;;;;;;9.95;52.62;101554.69;4924693;29;20083;-81
2022/01/25 02:32:21;;;;;;;29.47;18.90;;;;;;;9.88;52.57;101543.69;4926795;29;20044;-78
2022/01/25 02:34:48;;;;;;;32.27;18.97;;;;;;;9.95;52.34;101565.88;4931611;29;20068;-80
2022/01/25 02:37:16;;;;;;;36.93;18.57;;;;;;;9.89;52.39;101555.69;4927139;29;20136;-77
2022/01/25 02:39:44;;;;;;;36.10;20.40;;;;;;;10.01;52.14;101550.88;4934194;29;20086;-81
2022/01/25 02:42:14;;;;;;;34.07;19.80;;;;;;;9.96;52.29;101554.44;4927982;29;20143;-80
2022/01/25 02:44:42;;;;;;;;;;;;;;;10.00;51.88;101554.78;4933674;29;20075;-76
2022/01/25 02:50:06;;;;;;;36.07;19.30;;;;;;;9.99;51.75;101558.66;4931132;29;20126;-75
2022/01/25 02:52:33;;;;;;;35.93;19.63;;;;;;;9.80;52.42;101560.00;4927029;29;20134;-74
2022/01/25 02:55:00;;;;;;;35.03;19.97;;;;;;;9.47;52.27;101509.47;4925476;29;20083;-73
2022/01/25 02:57:27;;;;;;;37.80;20.53;;;;;;;9.68;52.14;101543.31;4929220;29;20142;-75
2022/01/25 02:59:55;;;;;;;42.30;23.60;;;;;;;9.88;51.77;101562.34;4927461;29;20131;-75
2022/01/25 03:02:22;;;;;;;44.43;22.70;;;;;;;9.79;51.61;101545.19;4926468;29;20075;-77
2022/01/25 03:04:49;;;;;;;38.30;24.93;;;;;;;9.79;51.46;101544.34;4930188;29;20063;-75
2022/01/25 03:07:16;;;;;;;38.97;21.83;;;;;;;9.81;51.70;101547.72;4928882;29;20052;-75
2022/01/25 03:09:42;;;;;;;43.53;24.13;;;;;;;9.65;51.61;101535.47;4934834;29;20078;-75
2022/01/25 03:12:13;;;;;;;39.27;21.37;;;;;;;9.77;51.62;101549.31;4924708;29;20143;-82
2022/01/25 03:14:59;;;;;;;37.07;21.47;;;;;;;9.58;51.77;101530.03;4949318;28;20083;-73
2022/01/25 03:17:30;;;;;;;36.70;21.30;;;;;;;9.73;51.73;101557.34;4928578;29;20079;-79
2022/01/25 03:20:06;;;;;;;37.17;20.57;;;;;;;9.70;51.92;101555.91;4931751;29;20444;-79
2022/01/25 03:25:11;;;;;;;30.80;17.37;;;;;;;9.54;51.99;101534.44;4922087;29;20087;-80
2022/01/25 03:27:38;;;;;;;34.57;18.43;;;;;;;9.47;52.58;101547.69;4927595;29;23128;-79
2022/01/25 03:30:05;;;;;;;31.57;16.33;;;;;;;9.40;52.72;101546.94;4932480;29;20175;-79
2022/01/25 03:32:32;;;;;;;25.57;13.23;;;;;;;9.30;53.25;101546.75;4930073;29;20083;-80
2022/01/25 03:34:59;;;;;;;29.27;17.50;;;;;;;9.25;53.61;101545.56;4933771;29;20048;-80
2022/01/25 03:37:26;;;;;;;27.20;15.33;;;;;;;8.99;53.44;101507.09;4951329;28;20500;-80
2022/01/25 03:39:53;;;;;;;26.90;16.43;;;;;;;9.01;53.64;101502.16;4937373;29;20080;-80
2022/01/25 03:42:20;;;;;;;26.70;15.83;;;;;;;9.04;53.80;101510.00;4938787;29;20083;-80
2022/01/25 03:44:47;;;;;;;28.90;16.67;;;;;;;9.32;53.11;101539.00;4933581;29;20135;-78
2022/01/25 03:47:17;;;;;;;23.47;14.93;;;;;;;9.17;53.06;101514.47;4928455;29;20124;-81
2022/01/25 03:49:51;;;;;;;27.17;15.57;;;;;;;9.28;53.25;101537.81;4931107;29;20135;-80
2022/01/25 03:52:28;;;;;;;25.10;13.53;;;;;;;9.34;52.86;101534.03;4924394;29;20107;-82
2022/01/25 03:54:55;;;;;;;31.77;16.50;;;;;;;9.05;53.37;101520.06;4932589;29;20148;-79
2022/01/25 03:57:22;;;;;;;26.63;13.87;;;;;;;9.00;53.35;101506.03;4938131;29;20455;-79
2022/01/25 03:59:49;;;;;;;24.63;14.07;;;;;;;8.98;53.51;101503.47;4924469;29;20115;-80
2022/01/25 04:02:16;;;;;;;24.23;12.30;;;;;;;9.06;53.60;101530.13;4933260;29;20090;-80
2022/01/25 04:04:47;;;;;;;25.03;13.47;;;;;;;8.94;53.88;101532.09;4930954;29;20059;-77
2022/01/25 04:07:18;;;;;;;24.13;13.17;;;;;;;8.89;53.66;101523.59;4924099;29;20090;-75
2022/01/25 04:09:45;;;;;;;26.80;13.27;;;;;;;8.98;53.46;101527.72;4952872;28;20576;-77
2022/01/25 04:12:13;;;;;;;24.80;13.07;;;;;;;8.91;53.76;101527.84;4927917;29;20591;-79
2022/01/25 04:14:40;;;;;;;21.37;12.40;;;;;;;8.69;53.69;101502.59;4931737;29;20131;-78
2022/01/25 04:17:10;;;;;;;25.57;12.70;;;;;;;8.84;53.90;101526.28;4931511;29;20138;-78
2022/01/25 04:19:42;;;;;;;21.92;11.27;;;;;;;8.72;53.70;101501.25;4933793;29;20063;-80
2022/01/25 04:27:44;;;;;;;22.07;10.60;;;;;;;9.09;52.77;101529.59;4902118;29;20136;-78
2022/01/25 04:30:11;;;;;;;22.57;12.00;;;;;;;8.90;52.98;101503.88;4939166;29;20043;-79
2022/01/25 04:33:25;;;;;;;21.30;12.73;;;;;;;8.91;53.49;101538.97;4938266;29;20122;-82
2022/01/25 04:49:20;;;;;;;9.23;5.60;;;;;;;8.23;54.89;101493.16;4955866;29;20034;-78
2022/01/25 05:02:15;;;;;;;10.83;6.37;;;;;;;8.19;55.80;101532.84;4933313;29;20075;-75
2022/01/25 05:04:49;;;;;;;8.63;3.43;;;;;;;8.12;56.18;101535.72;4930906;29;20075;-76
2022/01/25 05:09:46;;;;;;;13.90;8.80;;;;;;;7.74;56.11;101472.19;4929842;29;20517;-77
2022/01/25 05:12:13;;;;;;;11.47;5.30;;;;;;;8.09;56.43;101533.44;4922112;29;20550;-76
2022/01/25 05:17:40;;;;;;;8.67;4.33;;;;;;;7.87;56.33;101505.34;4921238;29;20134;-76
2022/01/25 05:22:52;;;;;;;13.73;7.03;;;;;;;7.98;56.68;101540.66;4926301;29;20490;-75
2022/01/25 05:25:19;;;;;;;7.20;3.40;;;;;;;7.96;56.86;101547.56;4930169;29;20056;-73
2022/01/25 05:27:46;;;;;;;6.97;4.27;;;;;;;7.82;57.01;101531.06;4934450;29;20135;-74
2022/01/25 05:30:13;;;;;;;7.90;5.43;;;;;;;7.90;56.93;101538.25;4930740;29;20559;-74
2022/01/25 05:32:40;;;;;;;11.60;3.80;;;;;;;7.77;57.31;101539.31;4931598;29;20489;-74
2022/01/25 05:35:07;;;;;;;4.73;3.27;;;;;;;7.73;57.44;101532.53;4928391;29;20071;-74
2022/01/25 05:37:41;;;;;;;8.60;5.93;;;;;;;7.69;57.86;101542.44;4924533;29;20143;-74
2022/01/25 05:40:15;;;;;;;13.37;5.17;;;;;;;7.73;57.52;101535.31;4928911;29;20047;-74
2022/01/25 05:43:52;;;;;;;7.93;4.13;;;;;;;7.43;57.71;101498.34;4925471;29;20079;-73
2022/01/25 05:45:55;;;;;;;5.13;3.27;;;;;;;7.64;57.76;101550.63;4923878;29;20134;-74
2022/01/25 05:48:23;;;;;;;10.27;5.60;;;;;;;7.43;58.01;101526.16;4925038;29;20110;-74
2022/01/25 05:50:50;;;;;;;5.97;4.37;;;;;;;7.43;58.20;101515.03;4930073;29;20147;-74
2022/01/25 05:53:18;;;;;;;14.77;6.83;;;;;;;7.47;58.15;101521.81;4935597;29;20079;-77
2022/01/25 05:55:45;;;;;;;14.90;8.77;;;;;;;7.55;58.03;101549.25;4924801;29;20142;-76
2022/01/25 05:58:12;;;;;;;12.50;7.83;;;;;;;7.54;57.94;101544.78;4933079;29;20095;-73
2022/01/25 06:00:39;;;;;;;14.27;8.03;;;;;;;7.35;57.65;101508.72;4930803;29;20151;-74
2022/01/25 06:03:07;;;;;;;16.07;6.80;;;;;;;7.53;57.80;101531.97;4932432;29;20098;-76
2022/01/25 06:05:34;;;;;;;7.33;3.67;;;;;;;7.57;57.70;101538.75;4934239;29;20130;-80
2022/01/25 06:08:03;;;;;;;13.83;7.87;;;;;;;7.49;57.54;101523.28;4932163;29;20550;-78
2022/01/25 06:10:31;;;;;;;16.83;7.67;;;;;;;7.74;57.25;101553.69;4960575;28;20486;-78
2022/01/25 06:12:58;;;;;;;12.73;8.50;;;;;;;7.74;57.15;101555.63;4927973;29;20540;-79
2022/01/25 06:15:26;;;;;;;13.10;7.17;;;;;;;7.74;57.13;101550.91;4932519;29;20124;-83
2022/01/25 06:17:54;;;;;;;12.63;6.90;;;;;;;7.57;56.86;101516.53;4930340;29;20048;-79
2022/01/25 06:20:21;;;;;;;19.80;9.13;;;;;;;7.82;56.88;101561.66;4930889;29;20168;-81
2022/01/25 06:22:48;;;;;;;13.50;8.33;;;;;;;7.64;56.61;101533.94;4929707;29;20578;-80
2022/01/25 06:25:16;;;;;;;16.10;9.77;;;;;;;7.89;56.67;101560.72;4926921;29;20583;-75
2022/01/25 06:27:44;;;;;;;14.53;8.13;;;;;;;7.90;56.41;101570.75;4917721;29;20072;-74
2022/01/25 06:30:16;;;;;;;14.50;8.50;;;;;;;7.95;56.26;101568.13;4924396;29;20143;-78
2022/01/25 06:32:45;;;;;;;15.70;7.90;;;;;;;8.14;55.72;101572.53;4924921;29;20048;-75
2022/01/25 06:35:15;;;;;;;16.23;9.30;;;;;;;7.95;55.28;101529.19;4925458;29;20481;-80
2022/01/25 06:37:42;;;;;;;15.30;8.67;;;;;;;8.27;55.26;101588.13;4924636;29;20073;-82
2022/01/25 06:40:09;;;;;;;13.50;8.67;;;;;;;8.24;55.18;101572.78;4931938;29;20194;-70
2022/01/25 06:42:36;;;;;;;16.03;9.27;;;;;;;8.19;55.44;101586.53;4918968;29;20178;-71
2022/01/25 06:45:11;;;;;;;14.10;8.27;;;;;;;8.05;55.75;101572.00;4920847;29;20048;-72
2022/01/25 06:47:39;;;;;;;13.20;7.60;;;;;;;7.70;55.80;101516.31;4925468;29;20502;-71
2022/01/25 06:50:07;;;;;;;9.80;5.63;;;;;;;7.83;55.76;101554.19;4927289;29;20101;-72
2022/01/25 06:52:37;;;;;;;12.57;7.17;;;;;;;7.84;56.02;101570.63;4924900;29;20151;-70
2022/01/25 06:55:09;;;;;;;11.50;7.38;;;;;;;7.75;56.37;101580.38;4924121;29;20079;-70
2022/01/25 06:57:36;;;;;;;7.20;3.53;;;;;;;7.43;56.62;101532.53;4926367;29;20131;-75
2022/01/25 07:00:07;;;;;;;5.73;3.67;;;;;;;7.72;56.66;101589.19;4924001;29;20407;-69
2022/01/25 07:02:35;;;;;;;4.57;3.63;;;;;;;7.53;56.93;101570.91;4924097;29;20416;-69
2022/01/25 07:05:03;;;;;;;9.67;4.17;;;;;;;7.21;57.06;101532.19;4922668;29;20565;-69
2022/01/25 07:07:30;;;;;;;10.00;4.77;;;;;;;7.70;56.96;101598.88;4926544;29;20147;-69
2022/01/25 07:09:57;;;;;;;9.70;4.77;;;;;;;7.75;56.64;101601.78;4928356;29;20074;-69
2022/01/25 07:12:25;;;;;;;15.57;8.57;;;;;;;7.75;56.45;101587.88;4928531;29;20064;-69
2022/01/25 07:14:51;;;;;;;6.83;4.70;;;;;;;7.84;56.41;101609.56;4929596;29;20448;-69
2022/01/25 07:17:19;;;;;;;8.10;4.73;;;;;;;7.49;56.40;101550.22;4926096;28;20055;-68
2022/01/25 07:19:46;;;;;;;10.43;5.80;;;;;;;7.75;56.31;101602.63;4929366;29;20164;-69
2022/01/25 07:22:13;;;;;;;7.23;3.57;;;;;;;7.44;56.66;101566.75;4954261;28;20075;-69
2022/01/25 07:24:40;;;;;;;8.50;3.73;;;;;;;7.74;56.38;101600.94;4925675;29;20186;-68
2022/01/25 07:27:07;;;;;;;9.83;5.80;;;;;;;7.84;56.24;101622.63;4929527;29;20146;-68
2022/01/25 07:29:34;;;;;;;13.03;7.07;;;;;;;7.74;56.46;101595.38;4929571;29;20130;-70
2022/01/25 07:32:02;;;;;;;15.17;8.47;;;;;;;7.83;56.02;101616.22;4928839;29;20139;-69
2022/01/25 07:34:40;;;;;;;14.30;5.27;;;;;;;7.87;56.15;101619.38;4927024;29;20052;-69
2022/01/25 07:37:13;;;;;;;15.53;6.67;;;;;;;7.52;56.42;101585.84;4956930;28;20192;-70
2022/01/25 07:39:45;;;;;;;9.93;5.53;;;;;;;7.64;56.76;101614.56;4926617;29;20071;-70
2022/01/25 07:42:16;;;;;;;9.63;6.10;;;;;;;7.72;56.49;101630.06;4925988;29;20052;-68
2022/01/25 07:44:46;;;;;;;10.07;4.77;;;;;;;7.73;56.64;101629.00;4927103;29;20130;-69
2022/01/25 07:47:13;;;;;;;6.13;3.33;;;;;;;7.74;56.33;101634.31;4928673;29;20071;-68
2022/01/25 07:49:45;;;;;;;5.67;3.10;;;;;;;7.77;56.31;101636.63;4933623;29;20052;-69
2022/01/25 07:52:13;;;;;;;7.73;4.27;;;;;;;7.65;56.52;101635.72;4928896;29;20091;-68
2022/01/25 07:54:42;;;;;;;8.80;5.27;;;;;;;7.69;56.55;101636.97;4924280;29;20146;-69
2022/01/25 07:57:09;;;;;;;6.57;4.13;;;;;;;7.55;56.74;101633.47;4925154;29;20131;-69
2022/01/25 07:59:36;;;;;;;9.03;5.60;;;;;;;7.61;56.49;101640.06;4933754;29;20126;-68
2022/01/25 08:02:03;;;;;;;10.90;5.20;;;;;;;7.68;56.50;101640.81;4952111;28;20135;-69
2022/01/25 08:04:40;;;;;;;7.10;5.27;;;;;;;7.63;56.80;101649.03;4929602;29;20066;-69
2022/01/25 08:07:17;;;;;;;9.73;5.87;;;;;;;7.12;56.83;101558.63;4886140;29;20059;-69
2022/01/25 08:09:54;;;;;;;11.67;6.13;;;;;;;7.75;56.37;101657.41;4917191;29;20063;-69
2022/01/25 08:12:38;;;;;;;11.60;6.20;;;;;;;7.99;55.90;101661.13;4917624;29;20142;-70
2022/01/25 08:15:24;;;;;;;14.80;7.60;;;;;;;8.17;55.81;101661.09;4918181;28;20546;-69
2022/01/25 08:17:54;;;;;;;7.17;5.17;;;;;;;8.39;55.32;101652.19;4919353;29;20055;-69
2022/01/25 08:20:42;;;;;;;6.97;3.00;;;;;;;8.59;55.09;101663.84;4924941;29;20117;-70
2022/01/25 08:23:20;;;;;;;13.57;5.60;;;;;;;8.75;54.48;101662.28;4926035;29;20060;-69
2022/01/25 08:25:50;;;;;;;13.68;6.95;;;;;;;8.80;53.71;101637.34;4926513;29;20520;-70
2022/01/25 08:28:34;;;;;;;5.90;4.07;;;;;;;9.09;53.80;101662.50;4922611;29;20190;-69
2022/01/25 08:31:21;;;;;;;5.90;2.43;;;;;;;9.34;53.12;101662.25;4923677;29;20051;-70
2022/01/25 08:34:05;;;;;;;11.63;6.67;;;;;;;9.35;52.57;101627.69;4936088;29;20138;-69
2022/01/25 08:36:37;;;;;;;14.17;6.93;;;;;;;9.94;52.01;101668.22;4934182;29;20098;-69
2022/01/25 08:39:09;;;;;;;8.07;4.87;;;;;;;10.45;51.27;101679.53;4930520;29;20143;-69
2022/01/25 08:41:41;;;;;;;10.67;6.37;;;;;;;10.84;50.56;101676.84;4932892;29;20047;-69
2022/01/25 08:44:09;;;;;;;10.27;6.83;;;;;;;11.28;49.93;101675.00;4929751;29;20056;-70
2022/01/25 08:46:52;;;;;;;11.40;6.70;;;;;;;11.81;49.46;101681.84;4934285;28;20510;-70
2022/01/25 08:49:30;;;;;;;13.17;7.33;;;;;;;12.17;48.80;101698.22;4932459;29;20052;-69
2022/01/25 08:52:25;;;;;;;12.43;7.17;;;;;;;12.63;47.98;101690.28;4926388;29;20134;-69
2022/01/25 08:55:15;;;;;;;12.70;7.30;;;;;;;13.00;47.03;101685.56;4881878;29;20128;-70
2022/01/25 08:57:59;;;;;;;12.50;6.47;;;;;;;13.32;46.28;101697.84;4925054;29;20052;-69
2022/01/25 09:00:28;;;;;;;11.02;6.15;;;;;;;13.34;45.92;101648.78;4939468;29;20479;-69
2022/01/25 09:02:55;;;;;;;14.10;7.63;;;;;;;13.84;45.64;101671.72;4932273;29;20052;-70
2022/01/25 09:05:22;;;;;;;11.70;7.23;;;;;;;14.25;44.84;101675.47;4927037;29;20055;-69
2022/01/25 09:07:49;;;;;;;14.17;8.77;;;;;;;14.69;44.45;101689.06;4930395;29;20095;-69
2022/01/25 09:10:16;;;;;;;15.83;8.37;;;;;;;15.21;43.91;101701.94;4926723;29;20088;-69
2022/01/25 09:12:43;;;;;;;14.53;8.03;;;;;;;15.80;43.67;101704.09;4930287;29;20134;-69
2022/01/25 09:15:10;;;;;;;12.83;7.03;;;;;;;16.27;42.93;101707.50;4929720;29;20179;-68
2022/01/25 09:17:37;;;;;;;15.27;8.93;;;;;;;16.41;42.39;101708.56;4932386;29;20178;-70
2022/01/25 09:20:05;;;;;;;14.27;9.17;;;;;;;16.72;41.90;101703.56;4933503;29;20083;-69
2022/01/25 09:22:32;;;;;;;10.27;6.37;;;;;;;16.89;41.00;101696.66;4934584;29;20177;-69
2022/01/25 09:25:19;;;;;;;13.02;7.28;;;;;;;16.76;40.31;101681.25;4928780;29;20533;-69
2022/01/25 09:27:46;;;;;;;13.77;8.87;;;;;;;17.11;39.82;101701.84;4930673;29;20138;-70
2022/01/25 09:30:13;;;;;;;14.93;8.02;;;;;;;17.12;39.16;101712.81;4928968;29;20047;-69
2022/01/25 09:32:41;;;;;;;11.85;7.13;;;;;;;16.89;38.76;101710.75;4932108;29;20094;-70
2022/01/25 09:35:08;;;;;;;16.13;8.70;;;;;;;17.12;38.87;101715.63;4927063;29;20052;-71
2022/01/25 09:37:34;;;;;;;12.35;7.93;;;;;;;17.41;38.70;101709.16;4928263;29;20537;-69
2022/01/25 09:40:03;;;;;;;14.00;9.18;;;;;;;17.72;38.54;101716.13;4928771;29;20135;-69
2022/01/25 09:42:30;;;;;;;14.73;8.85;;;;;;;18.02;37.75;101716.06;4930355;29;20070;-69
2022/01/25 09:44:58;;;;;;;14.82;9.10;;;;;;;18.54;37.67;101709.41;4931400;29;20476;-69
2022/01/25 09:47:26;;;;;;;21.40;9.90;;;;;;;19.15;36.90;101714.09;4925958;29;20416;-69
2022/01/25 09:49:53;;;;;;;14.50;8.38;;;;;;;19.84;36.39;101719.03;4928321;29;20503;-69
2022/01/25 09:52:20;;;;;;;13.85;8.60;;;;;;;20.13;35.65;101679.81;4926487;29;20131;-69
2022/01/25 09:54:55;;;;;;;14.55;7.95;;;;;;;20.93;34.80;101717.13;4931766;29;20142;-70
2022/01/25 09:57:23;;;;;;;12.32;8.27;;;;;;;20.77;33.82;101732.88;4931794;29;20147;-70
2022/01/25 09:59:50;;;;;;;13.90;8.95;;;;;;;20.89;33.96;101724.63;4927676;29;20114;-69
2022/01/25 10:03:10;;;;;;;13.38;7.38;;;;;;;20.79;33.33;101722.03;4932683;29;20476;-70
2022/01/25 10:05:38;;;;;;;;;;;;;;;20.09;32.88;101726.16;4952376;28;20159;-70
2022/01/25 10:08:16;;;;;;;13.05;7.03;;;;;;;20.48;33.33;101727.56;4935322;29;19923;-70
2022/01/25 10:10:51;;;;;;;10.45;7.00;;;;;;;20.32;32.66;101730.75;4932799;29;21159;-70
2022/01/25 10:13:25;;;;;;;12.45;6.72;;;;;;;20.10;32.99;101723.03;4929362;29;20135;-69
2022/01/25 10:16:10;;;;;;;12.15;7.95;;;;;;;19.98;32.92;101717.03;4927976;29;20460;-69
2022/01/25 10:18:45;;;;;;;11.10;7.20;;;;;;;20.29;32.94;101736.22;4932659;29;20510;-70
2022/01/25 10:21:24;;;;;;;5.90;3.65;;;;;;;19.74;31.75;101733.41;4932350;29;20474;-70
2022/01/25 10:24:09;;;;;;;4.93;3.40;;;;;;;19.24;31.66;101745.34;4934686;29;20126;-69
2022/01/25 10:26:56;;;;;;;10.30;4.95;;;;;;;19.05;31.67;101733.25;4930352;29;20517;-70
2022/01/25 10:29:25;;;;;;;9.32;5.93;;;;;;;19.63;31.95;101736.44;4922016;29;20054;-69
2022/01/25 10:32:14;;;;;;;5.75;3.30;;;;;;;19.50;31.43;101734.41;4931753;29;20048;-69
2022/01/25 10:34:45;;;;;;;6.70;3.90;;;;;;;19.43;31.25;101748.13;4931805;29;20063;-70
2022/01/25 10:37:15;;;;;;;6.82;4.32;;;;;;;18.97;31.12;101733.94;4933336;29;20048;-70
2022/01/25 10:39:47;;;;;;;8.25;5.32;;;;;;;19.26;31.53;101736.56;4930000;29;20079;-70
2022/01/25 10:42:23;;;;;;;11.45;5.32;;;;;;;19.79;31.51;101738.97;4930079;29;20119;-70
2022/01/25 10:45:03;;;;;;;11.15;5.32;;;;;;;19.64;30.57;101729.63;4921322;29;20111;-70
2022/01/25 10:47:44;;;;;;;7.75;4.63;;;;;;;19.91;31.23;101736.47;4917340;29;20059;-71
2022/01/25 10:50:26;;;;;;;11.98;7.57;;;;;;;19.83;30.29;101742.88;4918319;29;20066;-70
2022/01/25 10:53:11;;;;;;;8.60;5.22;;;;;;;19.29;30.29;101745.28;4925939;29;20052;-69
2022/01/25 10:55:41;;;;;;;7.78;4.45;;;;;;;19.20;30.55;101749.13;4917537;29;20051;-70
2022/01/25 10:58:08;;;;;;;5.82;3.65;;;;;;;19.59;31.09;101760.88;4916814;29;20091;-69
2022/01/25 11:00:41;;;;;;;9.50;5.07;;;;;;;19.45;30.66;101757.16;4918265;29;20162;-70
2022/01/25 11:03:08;;;;;;;9.20;5.13;;;;;;;19.76;30.41;101751.78;4922445;29;20055;-69
2022/01/25 11:05:46;;;;;;;12.32;6.40;;;;;;;19.47;30.42;101752.03;4918364;29;21148;-70
2022/01/25 11:08:19;;;;;;;11.35;6.30;;;;;;;19.94;30.34;101750.00;4914149;29;20052;-70
2022/01/25 11:10:53;;;;;;;7.38;4.68;;;;;;;20.04;29.90;101741.28;4916121;29;20503;-70
2022/01/25 11:15:58;;;;;;;10.45;5.95;;;;;;;20.06;29.89;101741.81;4917770;29;20131;-70
2022/01/25 11:18:25;;;;;;;9.23;5.57;;;;;;;19.96;29.44;101741.19;4924460;29;20076;-69
2022/01/25 11:20:54;;;;;;;9.10;5.05;;;;;;;20.27;29.24;101736.56;4915281;29;20055;-71
2022/01/25 11:23:22;;;;;;;7.37;5.03;;;;;;;20.57;29.21;101735.03;4914367;29;20062;-69
2022/01/25 11:25:50;;;;;;;13.02;8.10;;;;;;;21.02;28.96;101732.22;4915256;29;20150;-70
2022/01/25 11:28:16;;;;;;;24.90;10.75;;;;;;;21.34;28.44;101749.34;4924599;29;20056;-70
2022/01/25 11:30:46;;;;;;;10.25;7.65;;;;;;;20.81;27.99;101739.56;4921561;29;20136;-69
2022/01/25 11:33:14;;;;;;;17.40;8.23;;;;;;;21.04;28.45;101741.25;4917581;29;20174;-70
2022/01/25 11:35:42;;;;;;;13.38;6.97;;;;;;;21.68;28.37;101737.34;4917538;29;20150;-69
2022/01/25 11:38:09;;;;;;;11.40;6.10;;;;;;;22.49;27.42;101739.78;4916291;29;20610;-70
2022/01/25 11:40:40;;;;;;;9.77;5.35;;;;;;;22.44;26.94;101735.09;4912722;29;22192;-70
2022/01/25 11:43:16;;;;;;;10.30;6.10;;;;;;;22.39;26.51;101726.72;4914589;29;20171;-69
2022/01/25 11:45:47;;;;;;;8.40;5.82;;;;;;;22.58;26.71;101715.00;4915678;29;21093;-70
2022/01/25 11:48:33;;;;;;;6.88;4.75;;;;;;;22.38;26.59;101715.66;4919584;29;20692;-70
2022/01/25 11:51:01;;;;;;;7.25;5.43;;;;;;;22.47;26.53;101708.81;4921718;29;20138;-70
2022/01/25 11:53:39;;;;;;;9.02;7.25;;;;;;;22.91;26.00;101701.09;4939620;28;20455;-69
2022/01/25 11:56:09;;;;;;;9.02;5.90;;;;;;;23.06;25.76;101713.19;4923593;29;20548;-70
2022/01/25 11:58:36;;;;;;;;;;;;;;;23.57;26.09;101705.66;4921067;29;21822;-69
2022/01/25 12:01:18;;;;;;;9.82;6.15;;;;;;;24.23;25.57;101700.31;4920151;29;20378;-70
2022/01/25 12:04:07;;;;;;;10.75;6.47;;;;;;;24.38;25.18;101690.31;4919590;29;20788;-71
2022/01/25 12:06:49;;;;;;;9.95;6.05;;;;;;;24.78;24.58;101693.53;4919314;29;20052;-70
2022/01/25 12:09:31;;;;;;;6.10;5.05;;;;;;;25.44;24.72;101698.44;4924866;29;20055;-72
2022/01/25 12:12:01;;;;;;;8.55;5.90;;;;;;;25.93;23.98;101691.94;4922725;29;20182;-71
2022/01/25 12:14:42;;;;;;;10.00;6.15;;;;;;;26.11;23.05;101675.34;4926390;29;20582;-70
2022/01/25 12:17:23;;;;;;;7.38;6.00;;;;;;;26.07;22.87;101672.38;4923250;29;20167;-72
2022/01/25 12:19:54;;;;;;;6.90;5.15;;;;;;;25.92;22.39;101653.91;4922077;29;20060;-70
2022/01/25 12:22:29;;;;;;;9.35;6.00;;;;;;;26.44;22.68;101672.31;4923793;29;20055;-70
2022/01/25 12:25:08;;;;;;;7.97;5.20;;;;;;;27.01;22.34;101667.47;4930153;29;20093;-70
2022/01/25 12:27:45;;;;;;;7.40;5.93;;;;;;;27.30;21.54;101658.50;4921001;29;20478;-69
2022/01/25 12:30:26;;;;;;;10.65;5.97;;;;;;;27.65;21.58;101652.00;4919138;29;20083;-70
2022/01/25 12:33:04;;;;;;;10.68;6.35;;;;;;;28.26;21.79;101657.22;4935646;28;20058;-70
2022/01/25 12:35:41;;;;;;;10.43;6.63;;;;;;;28.26;21.10;101653.53;4919550;29;20059;-71
2022/01/25 12:38:11;;;;;;;9.38;6.13;;;;;;;28.74;20.72;101657.06;4930160;29;20111;-71
2022/01/25 12:40:48;;;;;;;7.80;6.10;;;;;;;29.07;20.44;101649.97;4937480;29;20079;-70
2022/01/25 12:43:19;;;;;;;9.70;6.57;;;;;;;29.34;20.22;101645.97;4943947;29;20079;-70
2022/01/25 12:45:51;;;;;;;9.90;7.00;;;;;;;29.48;20.53;101643.34;4974809;28;20044;-71
2022/01/25 12:48:28;;;;;;;8.95;6.70;;;;;;;29.83;19.80;101636.53;4946416;29;20063;-69
2022/01/25 12:50:58;;;;;;;10.52;6.68;;;;;;;29.85;19.25;101637.00;4934600;29;20119;-70
2022/01/25 12:53:28;;;;;;;8.13;6.13;;;;;;;30.00;19.18;101632.28;4946837;29;20134;-69
2022/01/25 12:55:59;;;;;;;12.45;6.80;;;;;;;30.39;19.30;101629.16;4940396;29;20067;-70
2022/01/25 12:58:28;;;;;;;9.45;6.10;;;;;;;30.41;19.17;101612.31;4944919;29;20063;-69
2022/01/25 13:01:01;;;;;;;11.13;6.82;;;;;;;29.88;18.68;101624.72;4945527;29;20063;-70
2022/01/25 13:03:35;;;;;;;9.55;6.00;;;;;;;30.04;18.52;101617.94;4944198;29;20550;-70
2022/01/25 13:06:09;;;;;;;7.40;6.60;;;;;;;30.04;18.58;101627.41;4931416;29;20066;-70
2022/01/25 13:08:39;;;;;;;18.77;10.27;;;;;;;30.49;18.88;101627.66;4916905;29;20071;-71
2022/01/25 13:11:48;;;;;;;8.30;6.60;;;;;;;31.12;18.61;101612.38;4917361;29;20179;-69
2022/01/25 13:17:02;;;;;;;8.68;5.35;;;;;;;30.67;17.56;101608.53;4935049;29;20048;-70
2022/01/25 13:19:38;;;;;;;9.70;5.60;;;;;;;30.68;17.14;101592.91;4935270;29;20052;-72
2022/01/25 13:22:11;;;;;;;8.18;5.53;;;;;;;30.37;18.03;101599.91;4926829;29;20149;-69
2022/01/25 13:24:56;;;;;;;9.10;7.57;;;;;;;30.18;17.88;101592.25;4920523;29;20071;-70
2022/01/25 13:27:29;;;;;;;10.20;6.68;;;;;;;30.53;17.29;101531.38;4926182;29;20574;-70
2022/01/25 13:32:50;;;;;;;6.43;5.18;;;;;;;30.72;17.24;101582.22;4917600;29;20150;-71
2022/01/25 13:35:36;;;;;;;9.65;4.78;;;;;;;30.60;17.78;101592.00;4919507;29;20139;-72
2022/01/25 13:38:09;;;;;;;8.10;4.75;;;;;;;28.14;18.97;101574.09;4960224;28;20051;-71